createdAt,value
2022-10-11T00:01:21.191Z,101186.19
2022-10-11T00:03:49.098Z,101182.78
2022-10-11T00:06:16.557Z,101178.22
2022-10-11T00:08:43.823Z,101186.53
2022-10-11T00:11:11.541Z,101182.87
2022-10-11T00:13:38.947Z,101174.47
2022-10-11T00:16:11.063Z,101185.00
2022-10-11T00:18:39.066Z,101181.44
2022-10-11T00:21:07.986Z,101180.31
2022-10-11T00:23:35.399Z,101176.41
2022-10-11T00:26:04.991Z,101172.19
2022-10-11T00:28:32.831Z,101174.94
2022-10-11T00:31:00.270Z,101176.34
2022-10-11T00:33:28.115Z,101174.66
2022-10-11T00:35:55.504Z,101172.25
2022-10-11T00:38:22.851Z,101172.91
2022-10-11T00:40:50.490Z,101162.41
2022-10-11T00:43:19.364Z,101164.47
2022-10-11T00:45:55.892Z,101168.53
2022-10-11T00:48:52.750Z,101165.78
2022-10-11T00:51:23.043Z,101162.28
2022-10-11T00:53:51.476Z,101154.78
2022-10-11T00:56:31.142Z,101149.56
2022-10-11T00:58:59.724Z,101159.06
2022-10-11T01:01:27.638Z,101165.22
2022-10-11T01:03:55.851Z,101158.75
2022-10-11T01:06:23.614Z,101155.94
2022-10-11T01:08:51.423Z,101152.75
2022-10-11T01:11:21.230Z,101155.44
2022-10-11T01:13:54.565Z,101163.09
2022-10-11T01:16:25.145Z,101159.22
2022-10-11T01:19:20.913Z,101156.84
2022-10-11T01:21:50.929Z,101159.91
2022-10-11T01:24:33.695Z,101161.25
2022-10-11T01:27:04.258Z,101159.31
2022-10-11T01:29:56.346Z,101161.81
2022-10-11T01:32:42.410Z,101159.06
2022-10-11T01:35:28.462Z,101165.97
2022-10-11T01:37:59.785Z,101166.69
2022-10-11T01:40:32.581Z,101167.38
2022-10-11T01:43:00.767Z,101163.09
2022-10-11T01:45:28.465Z,101155.63
2022-10-11T01:48:06.714Z,101152.34
2022-10-11T01:50:36.664Z,101153.28
2022-10-11T01:53:13.355Z,101145.31
2022-10-11T01:55:48.855Z,101146.25
2022-10-11T01:58:19.244Z,101146.13
2022-10-11T02:00:52.397Z,101143.56
2022-10-11T02:03:34.000Z,101142.91
2022-10-11T02:06:09.193Z,101148.38
2022-10-11T02:08:51.970Z,101145.19
2022-10-11T02:11:19.568Z,101151.06
2022-10-11T02:14:02.822Z,101142.88
2022-10-11T02:16:42.689Z,101150.12
2022-10-11T02:19:12.561Z,101151.09
2022-10-11T02:21:42.386Z,101150.59
2022-10-11T02:24:13.880Z,101149.69
2022-10-11T02:26:43.079Z,101147.00
2022-10-11T02:29:12.403Z,101151.13
2022-10-11T02:31:40.909Z,101142.00
2022-10-11T02:34:12.176Z,101149.16
2022-10-11T02:37:00.135Z,101150.12
2022-10-11T02:39:31.876Z,101148.38
2022-10-11T02:42:01.610Z,101148.22
2022-10-11T02:44:46.883Z,101148.59
2022-10-11T02:47:14.808Z,101150.19
2022-10-11T02:49:42.552Z,101143.38
2022-10-11T02:52:09.949Z,101133.00
2022-10-11T02:54:37.740Z,101140.06
2022-10-11T02:57:05.128Z,101135.34
2022-10-11T02:59:34.721Z,101132.66
2022-10-11T03:02:02.469Z,101147.22
2022-10-11T03:04:29.979Z,101143.97
2022-10-11T03:06:57.346Z,101136.69
2022-10-11T03:09:25.073Z,101148.09
2022-10-11T03:11:52.421Z,101150.97
2022-10-11T03:14:19.866Z,101146.53
2022-10-11T03:16:47.676Z,101140.56
2022-10-11T03:19:19.184Z,101135.75
2022-10-11T03:21:47.282Z,101143.97
2022-10-11T03:24:14.680Z,101141.69
2022-10-11T03:26:42.013Z,101146.94
2022-10-11T03:29:09.687Z,101135.69
2022-10-11T03:31:37.035Z,101148.63
2022-10-11T03:34:04.385Z,101141.13
2022-10-11T03:36:32.078Z,101142.81
2022-10-11T03:39:03.435Z,101133.84
2022-10-11T03:41:31.106Z,101137.41
2022-10-11T03:43:58.717Z,101137.94
2022-10-11T03:46:26.140Z,101139.22
2022-10-11T03:48:53.601Z,101148.06
2022-10-11T03:51:21.226Z,101146.13
2022-10-11T03:53:48.549Z,101141.44
2022-10-11T03:56:16.349Z,101144.53
2022-10-11T03:58:44.336Z,101138.72
2022-10-11T04:01:11.736Z,101146.03
2022-10-11T04:03:39.504Z,101143.47
2022-10-11T04:06:07.739Z,101149.69
2022-10-11T04:08:35.892Z,101145.16
2022-10-11T04:11:04.025Z,101132.28
2022-10-11T04:13:31.449Z,101139.66
2022-10-11T04:15:58.807Z,101138.31
2022-10-11T04:18:26.589Z,101147.03
2022-10-11T04:20:53.916Z,101146.75
2022-10-11T04:23:21.259Z,101143.25
2022-10-11T04:25:49.009Z,101146.09
2022-10-11T04:28:16.507Z,101138.75
2022-10-11T04:30:43.996Z,101137.03
2022-10-11T04:33:12.055Z,101146.19
2022-10-11T04:35:39.773Z,101147.03
2022-10-11T04:38:07.306Z,101147.03
2022-10-11T04:40:34.924Z,101149.56
2022-10-11T04:43:02.306Z,101144.56
2022-10-11T04:45:29.712Z,101149.37
2022-10-11T04:47:57.465Z,101155.75
2022-10-11T04:50:24.792Z,101154.78
2022-10-11T04:52:57.657Z,101155.41
2022-10-11T04:55:26.545Z,101150.19
2022-10-11T04:57:54.106Z,101151.59
2022-10-11T05:00:21.955Z,101144.97
2022-10-11T05:02:49.670Z,101148.66
2022-10-11T05:05:17.694Z,101153.59
2022-10-11T05:07:44.971Z,101152.22
2022-10-11T05:10:12.725Z,101151.91
2022-10-11T05:12:40.005Z,101151.47
2022-10-11T05:15:07.755Z,101161.44
2022-10-11T05:17:35.741Z,101157.78
2022-10-11T05:20:03.345Z,101159.63
2022-10-11T05:22:30.795Z,101160.66
2022-10-11T05:24:58.419Z,101158.13
2022-10-11T05:27:25.958Z,101173.22
2022-10-11T05:29:53.284Z,101170.62
2022-10-11T05:32:20.925Z,101166.50
2022-10-11T05:34:48.299Z,101169.91
2022-10-11T05:37:15.592Z,101175.28
2022-10-11T05:39:43.589Z,101171.22
2022-10-11T05:42:10.959Z,101181.91
2022-10-11T05:44:38.398Z,101181.12
2022-10-11T05:47:06.010Z,101187.88
2022-10-11T05:49:33.753Z,101195.28
2022-10-11T05:52:01.100Z,101187.13
2022-10-11T05:54:32.333Z,101196.50
2022-10-11T05:56:59.740Z,101190.63
2022-10-11T05:59:27.087Z,101190.50
2022-10-11T06:01:54.821Z,101193.94
2022-10-11T06:04:22.661Z,101201.25
2022-10-11T06:06:50.106Z,101209.06
2022-10-11T06:09:17.781Z,101203.97
2022-10-11T06:11:45.776Z,101205.22
2022-10-11T06:14:13.133Z,101209.38
2022-10-11T06:16:40.510Z,101211.81
2022-10-11T06:19:08.303Z,101216.06
2022-10-11T06:21:35.840Z,101222.78
2022-10-11T06:24:03.241Z,101223.31
2022-10-11T06:26:31.160Z,101225.66
2022-10-11T06:28:59.079Z,101235.59
2022-10-11T06:31:26.733Z,101231.34
2022-10-11T06:33:54.586Z,101228.25
2022-10-11T06:36:22.018Z,101236.28
2022-10-11T06:38:51.601Z,101238.25
2022-10-11T06:41:20.615Z,101235.81
2022-10-11T06:43:49.888Z,101236.66
2022-10-11T06:46:18.056Z,101232.88
2022-10-11T06:48:46.499Z,101233.59
2022-10-11T06:51:15.146Z,101237.81
2022-10-11T06:53:42.545Z,101243.09
2022-10-11T06:56:11.371Z,101232.06
2022-10-11T06:58:39.673Z,101230.72
2022-10-11T07:01:08.446Z,101241.94
2022-10-11T07:03:36.300Z,101238.09
2022-10-11T07:06:05.257Z,101229.44
2022-10-11T07:08:32.981Z,101241.44
2022-10-11T07:11:11.090Z,101246.53
2022-10-11T07:13:39.506Z,101248.06
2022-10-11T07:16:09.288Z,101255.97
2022-10-11T07:18:37.153Z,101244.44
2022-10-11T07:21:05.596Z,101247.09
2022-10-11T07:23:33.333Z,101250.03
2022-10-11T07:26:00.833Z,101245.19
2022-10-11T07:28:29.099Z,101251.06
2022-10-11T07:30:57.987Z,101250.56
2022-10-11T07:33:25.413Z,101246.72
2022-10-11T07:35:56.578Z,101249.34
2022-10-11T07:38:24.268Z,101246.41
2022-10-11T07:40:51.781Z,101246.00
2022-10-11T07:43:19.209Z,101250.06
2022-10-11T07:45:48.828Z,101254.47
2022-10-11T07:48:16.812Z,101246.56
2022-10-11T07:50:44.113Z,101252.50
2022-10-11T07:53:11.998Z,101241.66
2022-10-11T07:55:42.467Z,101250.28
2022-10-11T07:58:10.686Z,101257.09
2022-10-11T08:00:38.780Z,101263.41
2022-10-11T08:03:06.950Z,101254.25
2022-10-11T08:05:34.463Z,101255.19
2022-10-11T08:08:01.948Z,101267.16
2022-10-11T08:10:29.684Z,101270.94
2022-10-11T08:13:01.959Z,101269.09
2022-10-11T08:15:31.882Z,101270.50
2022-10-11T08:17:59.646Z,101272.44
2022-10-11T08:20:27.148Z,101277.78
2022-10-11T08:22:55.250Z,101277.63
2022-10-11T08:25:22.885Z,101275.22
2022-10-11T08:27:53.569Z,101280.56
2022-10-11T08:30:21.301Z,101275.03
2022-10-11T08:32:48.744Z,101279.28
2022-10-11T08:35:16.244Z,101272.94
2022-10-11T08:37:43.979Z,101271.72
2022-10-11T08:40:15.231Z,101277.44
2022-10-11T08:42:45.973Z,101273.00
2022-10-11T08:45:20.853Z,101275.06
2022-10-11T08:47:48.555Z,101278.63
2022-10-11T08:50:19.830Z,101269.84
2022-10-11T08:52:59.608Z,101267.25
2022-10-11T08:55:42.293Z,101270.53
2022-10-11T08:58:12.334Z,101275.44
2022-10-11T09:00:41.074Z,101268.38
2022-10-11T09:03:09.741Z,101279.09
2022-10-11T09:05:49.421Z,101275.84
2022-10-11T09:08:22.545Z,101276.41
2022-10-11T09:10:50.417Z,101277.53
2022-10-11T09:13:34.796Z,101277.06
2022-10-11T09:16:14.177Z,101280.72
2022-10-11T09:19:10.834Z,101281.91
2022-10-11T09:21:38.268Z,101278.81
2022-10-11T09:24:24.741Z,101272.91
2022-10-11T09:26:56.674Z,101269.22
2022-10-11T09:29:24.394Z,101269.06
2022-10-11T09:31:53.515Z,101270.97
2022-10-11T09:34:23.136Z,101275.13
2022-10-11T09:36:56.653Z,101280.41
2022-10-11T09:39:31.740Z,101278.13
2022-10-11T09:41:59.347Z,101278.25
2022-10-11T09:44:28.871Z,101279.84
2022-10-11T09:46:57.478Z,101275.50
2022-10-11T09:49:31.171Z,101276.50
2022-10-11T09:52:00.845Z,101278.44
2022-10-11T09:54:44.978Z,101273.16
2022-10-11T09:57:23.231Z,101281.56
2022-10-11T09:59:58.471Z,101281.37
2022-10-11T10:02:26.417Z,101284.19
2022-10-11T10:05:00.771Z,101282.53
2022-10-11T10:07:29.875Z,101282.75
2022-10-11T10:09:58.233Z,101280.00
2022-10-11T10:12:29.843Z,101286.22
2022-10-11T10:15:19.411Z,101279.50
2022-10-11T10:17:50.756Z,101274.34
2022-10-11T10:20:22.857Z,101281.03
2022-10-11T10:22:50.330Z,101272.97
2022-10-11T10:25:23.699Z,101276.28
2022-10-11T10:27:58.937Z,101270.81
2022-10-11T10:30:29.799Z,101273.19
2022-10-11T10:33:03.834Z,101278.38
2022-10-11T10:35:41.936Z,101274.97
2022-10-11T10:38:28.009Z,101274.34
2022-10-11T10:40:58.308Z,101280.25
2022-10-11T10:43:27.730Z,101270.44
2022-10-11T10:46:08.159Z,101270.91
2022-10-11T10:49:28.671Z,101272.97
2022-10-11T10:51:42.525Z,101272.50
2022-10-11T10:54:10.235Z,101266.00
2022-10-11T10:56:42.339Z,101262.88
2022-10-11T10:59:25.325Z,101263.44
2022-10-11T11:02:15.897Z,101257.53
2022-10-11T11:07:37.540Z,101263.31
2022-10-11T11:10:21.026Z,101254.13
2022-10-11T11:12:51.110Z,101258.13
2022-10-11T11:15:32.290Z,101254.22
2022-10-11T11:18:12.433Z,101251.81
2022-10-11T11:21:00.383Z,101257.22
2022-10-11T11:23:36.513Z,101248.38
2022-10-11T11:26:37.815Z,101258.84
2022-10-11T11:32:13.995Z,101254.34
2022-10-11T11:34:44.557Z,101255.19
2022-10-11T11:37:12.741Z,101252.78
2022-10-11T11:39:46.325Z,101247.37
2022-10-11T11:45:03.386Z,101248.22
2022-10-11T11:50:25.341Z,101242.75
2022-10-11T11:52:55.752Z,101249.47
2022-10-11T11:55:28.497Z,101242.44
2022-10-11T11:58:17.789Z,101238.19
2022-10-11T12:01:04.326Z,101239.16
2022-10-11T12:03:41.291Z,101243.72
2022-10-11T12:06:14.746Z,101238.41
2022-10-11T12:08:43.761Z,101235.69
2022-10-11T12:11:22.525Z,101231.50
2022-10-11T12:13:51.040Z,101235.69
2022-10-11T12:16:19.208Z,101230.37
2022-10-11T12:18:49.710Z,101233.91
2022-10-11T12:21:23.410Z,101228.91
2022-10-11T12:23:52.552Z,101230.78
2022-10-11T12:26:29.239Z,101219.72
2022-10-11T12:29:01.333Z,101228.00
2022-10-11T12:31:30.925Z,101218.47
2022-10-11T12:34:01.305Z,101226.41
2022-10-11T12:36:29.760Z,101225.75
2022-10-11T12:39:15.641Z,101218.78
2022-10-11T12:41:46.111Z,101213.88
2022-10-11T12:44:23.011Z,101213.37
2022-10-11T12:46:50.729Z,101210.00
2022-10-11T12:49:36.596Z,101212.47
2022-10-11T12:52:16.303Z,101203.91
2022-10-11T12:55:03.209Z,101200.16
2022-10-11T12:57:45.202Z,101198.00
2022-10-11T13:00:16.838Z,101204.84
2022-10-11T13:02:45.026Z,101200.47
2022-10-11T13:05:22.035Z,101203.37
2022-10-11T13:07:50.932Z,101198.69
2022-10-11T13:10:39.278Z,101199.66
2022-10-11T13:13:11.972Z,101196.53
2022-10-11T13:15:42.198Z,101194.38
2022-10-11T13:18:14.526Z,101196.84
2022-10-11T13:20:42.638Z,101182.63
2022-10-11T13:23:24.276Z,101191.97
2022-10-11T13:25:51.918Z,101197.66
2022-10-11T13:28:20.624Z,101196.37
2022-10-11T13:30:49.669Z,101194.78
2022-10-11T13:33:25.563Z,101197.72
2022-10-11T13:35:53.750Z,101188.66
2022-10-11T13:38:30.738Z,101189.97
2022-10-11T13:40:59.557Z,101191.16
2022-10-11T13:43:28.943Z,101198.09
2022-10-11T13:45:58.074Z,101193.34
2022-10-11T13:48:30.879Z,101187.88
2022-10-11T13:51:07.194Z,101198.12
2022-10-11T13:53:35.643Z,101196.69
2022-10-11T13:56:05.700Z,101197.59
2022-10-11T13:58:35.416Z,101206.25
2022-10-11T14:01:08.005Z,101196.81
2022-10-11T14:03:38.544Z,101204.19
2022-10-11T14:06:06.337Z,101199.66
2022-10-11T14:08:37.730Z,101201.34
2022-10-11T14:11:06.903Z,101199.37
2022-10-11T14:13:47.718Z,101202.72
2022-10-11T14:16:18.819Z,101200.09
2022-10-11T14:18:48.765Z,101202.47
2022-10-11T14:21:19.459Z,101200.97
2022-10-11T14:23:46.865Z,101196.16
2022-10-11T14:26:18.552Z,101204.88
2022-10-11T14:28:51.982Z,101197.06
2022-10-11T14:31:19.450Z,101198.34
2022-10-11T14:33:47.294Z,101193.37
2022-10-11T14:36:14.662Z,101192.63
2022-10-11T14:38:42.084Z,101187.16
2022-10-11T14:41:09.729Z,101192.38
2022-10-11T14:43:37.102Z,101190.47
2022-10-11T14:46:05.648Z,101193.22
2022-10-11T14:48:56.924Z,101191.00
2022-10-11T14:51:31.082Z,101194.91
2022-10-11T14:53:58.768Z,101193.09
2022-10-11T14:56:26.442Z,101198.59
2022-10-11T14:58:53.771Z,101205.56
2022-10-11T15:01:21.475Z,101200.63
2022-10-11T15:03:49.069Z,101204.78
2022-10-11T15:06:21.912Z,101201.25
2022-10-11T15:08:49.783Z,101198.16
2022-10-11T15:11:18.118Z,101200.44
2022-10-11T15:13:45.855Z,101197.28
2022-10-11T15:16:14.917Z,101204.66
2022-10-11T15:18:43.971Z,101200.13
2022-10-11T15:21:13.551Z,101208.38
2022-10-11T15:23:41.474Z,101209.75
2022-10-11T15:26:13.301Z,101207.06
2022-10-11T15:28:41.225Z,101203.69
2022-10-11T15:31:09.843Z,101219.06
2022-10-11T15:33:37.979Z,101215.00
2022-10-11T15:36:07.031Z,101216.72
2022-10-11T15:38:34.789Z,101228.31
2022-10-11T15:41:02.111Z,101223.31
2022-10-11T15:43:30.108Z,101226.72
2022-10-11T15:45:57.920Z,101222.59
2022-10-11T15:48:26.494Z,101229.53
2022-10-11T15:50:57.243Z,101228.06
2022-10-11T15:53:28.604Z,101226.69
2022-10-11T15:55:57.934Z,101227.19
2022-10-11T15:58:27.043Z,101231.28
2022-10-11T16:00:55.597Z,101238.72
2022-10-11T16:03:24.712Z,101241.94
2022-10-11T16:05:52.685Z,101233.06
2022-10-11T16:08:20.248Z,101238.16
2022-10-11T16:10:48.333Z,101240.09
2022-10-11T16:13:15.679Z,101241.66
2022-10-11T16:15:43.578Z,101247.37
2022-10-11T16:18:15.135Z,101246.63
2022-10-11T16:20:43.724Z,101250.97
2022-10-11T16:23:11.965Z,101246.13
2022-10-11T16:25:41.154Z,101251.13
2022-10-11T16:28:09.359Z,101246.69
2022-10-11T16:30:43.245Z,101249.66
2022-10-11T16:33:10.584Z,101253.19
2022-10-11T16:35:42.170Z,101261.00
2022-10-11T16:38:13.964Z,101252.41
2022-10-11T16:40:42.732Z,101258.47
2022-10-11T16:43:10.164Z,101259.16
2022-10-11T16:45:37.598Z,101267.44
2022-10-11T16:48:05.471Z,101274.75
2022-10-11T16:50:38.352Z,101280.47
2022-10-11T16:53:06.934Z,101275.16
2022-10-11T16:55:34.775Z,101277.59
2022-10-11T16:58:02.296Z,101270.69
2022-10-11T17:00:30.007Z,101277.72
2022-10-11T17:02:57.431Z,101280.63
2022-10-11T17:05:24.837Z,101281.34
2022-10-11T17:07:52.562Z,101285.38
2022-10-11T17:10:39.298Z,101286.94
2022-10-11T17:13:07.120Z,101287.66
2022-10-11T17:15:36.034Z,101290.66
2022-10-11T17:18:03.798Z,101285.41
2022-10-11T17:20:33.788Z,101292.81
2022-10-11T17:23:01.393Z,101289.97
2022-10-11T17:25:28.823Z,101283.81
2022-10-11T17:27:56.659Z,101291.03
2022-10-11T17:30:24.615Z,101285.97
2022-10-11T17:32:52.301Z,101286.47
2022-10-11T17:35:19.906Z,101289.03
2022-10-11T17:37:47.317Z,101291.31
2022-10-11T17:40:14.760Z,101293.38
2022-10-11T17:42:42.413Z,101291.06
2022-10-11T17:45:09.853Z,101292.16
2022-10-11T17:47:37.241Z,101289.75
2022-10-11T17:50:05.151Z,101292.75
2022-10-11T17:52:32.776Z,101293.53
2022-10-11T17:55:00.243Z,101286.19
2022-10-11T17:57:27.947Z,101286.03
2022-10-11T17:59:55.425Z,101293.03
2022-10-11T18:02:22.751Z,101281.78
2022-10-11T18:04:50.536Z,101285.63
2022-10-11T18:07:17.908Z,101283.75
2022-10-11T18:09:45.377Z,101280.00
2022-10-11T18:12:13.117Z,101286.56
2022-10-11T18:14:40.490Z,101289.91
2022-10-11T18:17:07.966Z,101281.63
2022-10-11T18:19:35.757Z,101280.91
2022-10-11T18:22:06.863Z,101284.28
2022-10-11T18:24:34.723Z,101283.75
2022-10-11T18:27:02.492Z,101286.97
2022-10-11T18:29:32.095Z,101284.28
2022-10-11T18:31:59.458Z,101287.28
2022-10-11T18:34:28.509Z,101286.69
2022-10-11T18:36:56.332Z,101286.56
2022-10-11T18:39:23.687Z,101287.06
2022-10-11T18:41:51.422Z,101289.41
2022-10-11T18:44:18.774Z,101293.59
2022-10-11T18:46:46.305Z,101295.09
2022-10-11T18:49:14.160Z,101292.62
2022-10-11T18:51:41.788Z,101281.56
2022-10-11T18:54:12.036Z,101302.53
2022-10-11T18:56:41.747Z,101295.94
2022-10-11T18:59:10.065Z,101296.16
2022-10-11T19:01:39.336Z,101298.81
2022-10-11T19:04:08.229Z,101289.12
2022-10-11T19:06:37.170Z,101296.72
2022-10-11T19:09:06.318Z,101298.94
2022-10-11T19:11:34.302Z,101300.94
2022-10-11T19:14:07.179Z,101296.31
2022-10-11T19:16:37.563Z,101298.53
2022-10-11T19:19:05.779Z,101294.75
2022-10-11T19:21:33.629Z,101298.59
2022-10-11T19:24:01.263Z,101301.44
2022-10-11T19:26:31.393Z,101303.38
2022-10-11T19:29:03.747Z,101306.28
2022-10-11T19:31:32.244Z,101309.53
2022-10-11T19:34:00.024Z,101309.34
2022-10-11T19:36:29.659Z,101304.00
2022-10-11T19:39:00.649Z,101313.22
2022-10-11T19:41:28.109Z,101317.81
2022-10-11T19:43:58.063Z,101315.13
2022-10-11T19:49:15.881Z,101321.47
2022-10-11T19:51:43.549Z,101315.78
2022-10-11T19:54:13.015Z,101323.84
2022-10-11T19:56:40.854Z,101329.66
2022-10-11T19:59:08.589Z,101312.13
2022-10-11T20:01:36.548Z,101330.78
2022-10-11T20:04:08.825Z,101319.47
2022-10-11T20:06:38.945Z,101328.44
2022-10-11T20:09:28.435Z,101323.22
2022-10-11T20:11:55.318Z,101321.94
2022-10-11T20:14:23.274Z,101320.09
2022-10-11T20:16:51.023Z,101327.12
2022-10-11T20:19:18.772Z,101327.12
2022-10-11T20:21:46.492Z,101318.47
2022-10-11T20:24:13.796Z,101325.66
2022-10-11T20:26:41.163Z,101323.38
2022-10-11T20:29:08.842Z,101329.38
2022-10-11T20:31:40.869Z,101324.72
2022-10-11T20:34:09.318Z,101329.44
2022-10-11T20:36:37.135Z,101326.28
2022-10-11T20:39:05.078Z,101332.91
2022-10-11T20:41:34.661Z,101329.81
2022-10-11T20:44:02.744Z,101327.12
2022-10-11T20:46:31.670Z,101333.88
2022-10-11T20:49:03.564Z,101321.41
2022-10-11T20:51:31.630Z,101331.78
2022-10-11T20:54:00.610Z,101325.47
2022-10-11T20:56:28.481Z,101329.50
2022-10-11T20:58:56.525Z,101324.44
2022-10-11T21:01:28.820Z,101325.31
2022-10-11T21:04:00.116Z,101322.31
2022-10-11T21:06:28.346Z,101328.81
2022-10-11T21:08:59.437Z,101323.06
2022-10-11T21:11:27.440Z,101328.16
2022-10-11T21:13:59.564Z,101331.63
2022-10-11T21:16:27.382Z,101327.56
2022-10-11T21:18:56.418Z,101329.34
2022-10-11T21:21:24.240Z,101329.69
2022-10-11T21:23:55.627Z,101335.25
2022-10-11T21:26:23.319Z,101324.72
2022-10-11T21:28:51.267Z,101326.28
2022-10-11T21:31:19.811Z,101319.88
2022-10-11T21:33:47.597Z,101328.81
2022-10-11T21:36:16.386Z,101334.44
2022-10-11T21:38:43.893Z,101323.94
2022-10-11T21:41:13.241Z,101327.63
2022-10-11T21:43:40.747Z,101330.53
2022-10-11T21:46:12.040Z,101329.44
2022-10-11T21:48:40.057Z,101327.38
2022-10-11T21:51:07.713Z,101327.81
2022-10-11T21:53:35.092Z,101323.72
2022-10-11T21:56:02.802Z,101323.34
2022-10-11T21:58:30.212Z,101321.03
2022-10-11T22:00:57.596Z,101324.00
2022-10-11T22:03:25.818Z,101326.59
2022-10-11T22:05:53.192Z,101316.06
2022-10-11T22:08:22.057Z,101319.75
2022-10-11T22:10:54.054Z,101323.50
2022-10-11T22:13:21.783Z,101326.69
2022-10-11T22:15:49.301Z,101327.09
2022-10-11T22:18:16.987Z,101324.66
2022-10-11T22:20:44.527Z,101320.28
2022-10-11T22:23:11.863Z,101326.09
2022-10-11T22:25:39.985Z,101315.00
2022-10-11T22:28:07.703Z,101322.16
2022-10-11T22:30:35.067Z,101326.19
2022-10-11T22:33:02.791Z,101321.09
2022-10-11T22:35:32.470Z,101318.22
2022-10-11T22:38:03.872Z,101317.63
2022-10-11T22:40:31.227Z,101320.38
2022-10-11T22:42:58.677Z,101330.78
2022-10-11T22:45:26.376Z,101326.62
2022-10-11T22:47:53.700Z,101327.66
2022-10-11T22:50:21.347Z,101329.94
2022-10-11T22:52:48.983Z,101327.59
2022-10-11T22:55:19.877Z,101332.28
2022-10-11T22:57:47.810Z,101335.50
2022-10-11T23:00:15.654Z,101329.94
2022-10-11T23:02:43.051Z,101330.53
2022-10-11T23:05:10.503Z,101328.00
2022-10-11T23:07:38.402Z,101334.25
2022-10-11T23:10:06.443Z,101336.44
2022-10-11T23:12:34.984Z,101330.00
2022-10-11T23:15:02.614Z,101332.66
2022-10-11T23:17:30.121Z,101329.84
2022-10-11T23:19:57.651Z,101338.47
2022-10-11T23:22:25.395Z,101335.19
2022-10-11T23:24:52.796Z,101340.94
2022-10-11T23:27:20.172Z,101344.03
2022-10-11T23:29:48.300Z,101344.91
2022-10-11T23:32:15.654Z,101344.25
2022-10-11T23:34:43.139Z,101349.94
2022-10-11T23:37:10.724Z,101347.38
2022-10-11T23:39:38.571Z,101343.31
2022-10-11T23:42:06.001Z,101339.94
2022-10-11T23:44:33.699Z,101343.66
2022-10-11T23:47:01.118Z,101350.81
2022-10-11T23:49:28.856Z,101344.50
2022-10-11T23:51:57.305Z,101346.19
2022-10-11T23:54:24.748Z,101349.72
2022-10-11T23:56:52.332Z,101350.72
2022-10-11T23:59:20.041Z,101351.00
